createdAt,value
2023-05-03T13:08:50.134Z,15.85
2023-05-03T13:11:20.288Z,15.70
2023-05-03T13:13:48.273Z,12.10
2023-05-03T13:16:16.208Z,12.98
2023-05-03T13:18:45.437Z,10.43
2023-05-03T13:21:13.583Z,12.02
2023-05-03T13:23:41.506Z,11.07
2023-05-03T13:26:10.752Z,8.10
2023-05-03T13:28:40.898Z,7.18
2023-05-03T13:31:08.976Z,7.22
2023-05-03T13:33:38.099Z,6.90
2023-05-03T13:36:06.382Z,9.38
2023-05-03T13:38:34.224Z,8.43
2023-05-03T13:41:02.359Z,6.85
2023-05-03T13:43:31.573Z,8.68
2023-05-03T13:46:01.949Z,6.65
2023-05-03T13:48:31.778Z,4.95
2023-05-03T13:51:00.355Z,6.10
2023-05-03T13:53:28.248Z,6.60
2023-05-03T13:55:56.489Z,6.15
2023-05-03T13:58:24.471Z,7.93
2023-05-03T14:00:53.737Z,5.65
2023-05-03T14:03:21.663Z,6.05
2023-05-03T14:05:49.641Z,7.63
2023-05-03T14:08:17.616Z,5.65
2023-05-03T14:10:45.553Z,5.10
2023-05-03T14:13:13.390Z,6.55
2023-05-03T14:15:42.555Z,5.63
2023-05-03T14:18:14.890Z,6.47
2023-05-03T14:20:43.626Z,6.60
2023-05-03T14:23:15.284Z,3.55
2023-05-03T14:25:43.343Z,3.70
2023-05-03T14:28:11.463Z,3.95
2023-05-03T14:30:39.408Z,4.07
2023-05-03T14:33:07.762Z,3.90
2023-05-03T14:35:37.704Z,5.88
2023-05-03T14:38:09.007Z,4.05
2023-05-03T14:43:05.150Z,4.72
2023-05-03T14:45:33.006Z,4.50
2023-05-03T14:48:01.974Z,5.38
2023-05-03T14:50:30.015Z,5.88
2023-05-03T14:52:59.341Z,5.30
2023-05-03T14:55:27.270Z,5.03
2023-05-03T14:57:55.864Z,7.43
2023-05-03T15:00:25.614Z,7.13
2023-05-03T15:02:55.979Z,4.93
2023-05-03T15:05:24.057Z,7.05
2023-05-03T15:07:52.514Z,4.82
2023-05-03T15:10:22.418Z,5.85
2023-05-03T15:12:50.271Z,12.18
2023-05-03T15:15:18.304Z,7.38
2023-05-03T15:17:46.536Z,6.65
2023-05-03T15:20:15.333Z,6.20
2023-05-03T15:22:43.160Z,5.97
2023-05-03T15:25:11.303Z,6.53
2023-05-03T15:27:40.565Z,5.00
2023-05-03T15:30:12.173Z,6.25
2023-05-03T15:32:40.105Z,8.50
2023-05-03T15:35:08.449Z,5.15
2023-05-03T15:37:38.428Z,11.80
2023-05-03T15:40:10.337Z,7.28
2023-05-03T15:42:40.129Z,6.63
2023-05-03T15:45:09.898Z,4.65
2023-05-03T15:47:38.615Z,4.75
2023-05-03T15:50:07.799Z,5.72
2023-05-03T15:52:36.129Z,4.43
2023-05-03T15:55:04.012Z,4.32
2023-05-03T15:57:32.795Z,5.70
2023-05-03T16:00:02.588Z,4.50
2023-05-03T16:02:30.680Z,5.90
2023-05-03T16:04:58.544Z,5.13
2023-05-03T16:07:26.876Z,6.70
2023-05-03T16:09:54.751Z,3.75
2023-05-03T16:12:22.866Z,4.82
2023-05-03T16:14:50.714Z,5.85
2023-05-03T16:17:19.923Z,4.95
2023-05-03T16:19:47.724Z,5.35
2023-05-03T16:22:16.872Z,4.10
2023-05-03T16:24:46.808Z,4.05
2023-05-03T16:27:14.675Z,3.83
2023-05-03T16:29:42.492Z,3.72
2023-05-03T16:32:11.211Z,3.50
2023-05-03T16:34:40.649Z,4.47
2023-05-03T16:37:08.466Z,4.25
2023-05-03T16:39:36.309Z,3.90
2023-05-03T16:42:04.156Z,4.35
2023-05-03T16:44:32.138Z,4.43
2023-05-03T16:46:59.958Z,5.93
2023-05-03T16:49:27.814Z,4.13
2023-05-03T16:51:57.760Z,4.57
2023-05-03T16:54:25.661Z,7.10
2023-05-03T16:56:53.533Z,7.78
2023-05-03T16:59:21.373Z,4.75
2023-05-03T17:01:49.404Z,5.40
2023-05-03T17:04:17.279Z,4.45
2023-05-03T17:06:45.116Z,5.93
2023-05-03T17:09:14.852Z,5.63
2023-05-03T17:11:42.681Z,5.38
2023-05-03T17:14:10.582Z,5.03
2023-05-03T17:16:41.293Z,4.68
2023-05-03T17:19:09.333Z,7.90
2023-05-03T17:21:37.284Z,7.65
2023-05-03T17:24:05.253Z,6.65
2023-05-03T17:26:34.423Z,5.85
2023-05-03T17:29:02.433Z,7.55
2023-05-03T17:31:30.441Z,5.40
2023-05-03T17:33:58.282Z,4.40
2023-05-03T17:36:26.097Z,7.55
2023-05-03T17:38:54.258Z,5.70
2023-05-03T17:41:22.296Z,5.70
2023-05-03T17:43:51.671Z,6.82
2023-05-03T17:46:20.256Z,4.65
2023-05-03T17:48:48.414Z,4.57
2023-05-03T17:51:16.311Z,6.47
2023-05-03T17:53:44.122Z,5.05
2023-05-03T17:56:15.924Z,4.57
2023-05-03T17:58:44.734Z,6.78
2023-05-03T18:01:15.815Z,4.85
2023-05-03T18:03:44.022Z,5.67
2023-05-03T18:06:14.126Z,7.55
2023-05-03T18:08:42.274Z,7.55
2023-05-03T18:11:10.269Z,7.78
2023-05-03T18:13:38.092Z,8.65
2023-05-03T18:16:08.042Z,6.07
2023-05-03T18:18:37.360Z,5.13
2023-05-03T18:21:06.339Z,5.18
2023-05-03T18:23:37.917Z,6.38
2023-05-03T18:26:07.451Z,6.28
2023-05-03T18:28:35.411Z,6.35
2023-05-03T18:31:03.797Z,6.63
2023-05-03T18:33:33.681Z,6.88
2023-05-03T18:36:05.055Z,6.72
2023-05-03T18:38:32.884Z,6.90
2023-05-03T18:41:00.757Z,6.30
2023-05-03T18:43:28.535Z,6.90
2023-05-03T18:45:56.361Z,8.88
2023-05-03T18:48:24.158Z,10.32
2023-05-03T18:50:51.950Z,9.85
2023-05-03T18:53:21.124Z,11.35
2023-05-03T18:55:52.031Z,10.23
2023-05-03T18:58:19.920Z,9.75
2023-05-03T19:00:47.876Z,11.65
2023-05-03T19:03:15.997Z,12.77
2023-05-03T19:05:43.898Z,11.15
2023-05-03T19:08:11.672Z,15.27
2023-05-03T19:10:41.465Z,10.18
2023-05-03T19:13:09.322Z,11.75
2023-05-03T19:15:37.216Z,11.05
2023-05-03T19:18:05.369Z,12.20
2023-05-03T19:20:33.172Z,11.77
2023-05-03T19:23:01.568Z,11.48
2023-05-03T19:25:29.368Z,11.40
2023-05-03T19:27:58.527Z,11.95
2023-05-03T19:30:26.327Z,11.40
2023-05-03T19:32:54.206Z,10.77
2023-05-03T19:35:22.045Z,13.38
2023-05-03T19:37:49.847Z,13.38
2023-05-03T19:40:18.122Z,11.85
